Kinne — PHAR — position and weather

sailwx.info

Track history (hours):
 
Tides and Currents Weather Stations Pressure Air Temp Water Temp Dewpoint Dewpoint Depression Visibility Wind Speed Wind Dir Waves Ship Positions

Kinne

Last reported at 2018-Jul-23 00:58 UTC. Time now 2018-Jul-23 04:05 UTC.
Position N 57°10' E 008°27'.

Length 89 m; draft 5.4 m.

Type: Cargo ship. MMSI: 245057000.

Date/timePositionNaut miles runAvg speedWind from/ knotsBaromVisibWave heightAir tempDewpointWater temp
2018-Jul-23 00:58N 57°10' E 008°27'8 9.8
2018-Jul-23 00:10N 57°14' E 008°39'1810.0
2018-Jul-22 22:25N 57°23' E 009°07'410.0
2018-Jul-22 22:00N 57°25' E 009°13'5 9.8
2018-Jul-22 21:30N 57°28' E 009°21'5 9.6
2018-Jul-22 20:59N 57°30' E 009°29'5 9.6
2018-Jul-22 20:30N 57°33' E 009°36'8 8.8
2018-Jul-22 19:34N 57°37' E 009°50'2 8.4
2018-Jul-22 19:20N 57°38' E 009°53'5 8.5
2018-Jul-22 18:44N 57°40' E 010°01'3 8.6
2018-Jul-22 18:26N 57°42' E 010°06'4 8.7
2018-Jul-22 17:58N 57°43' E 010°12'5 8.7
2018-Jul-22 17:27N 57°45' E 010°20'4 8.5
2018-Jul-22 17:00N 57°47' E 010°26'4 8.1
2018-Jul-22 16:30N 57°48' E 010°33'4 7.9
2018-Jul-22 16:00N 57°48' E 010°41'8 8.5
2018-Jul-22 15:01N 57°45' E 010°56'5 9.8
2018-Jul-22 14:30N 57°43' E 011°04'5 9.9
2018-Jul-22 14:01N 57°42' E 011°13'510.2
2018-Jul-22 13:30N 57°40' E 011°22'5 9.8
2018-Jul-22 13:00N 57°38' E 011°30'510.4
2018-Jul-22 12:30N 57°37' E 011°40'5 9.8
2018-Jul-22 12:01N 57°40' E 011°47'0 0.3
2018-Jul-22 11:28N 57°40' E 011°47'0 0.0
2018-Jul-22 10:59N 57°40' E 011°47'2 4.8
2018-Jul-22 10:30N 57°41' E 011°51'4 8.0
2018-Jul-22 10:00N 57°43' E 011°58'3 5.4
2018-Jul-22 09:30N 57°45' E 012°00'3 6.0
2018-Jul-22 09:00N 57°48' E 012°01'3 6.1
2018-Jul-22 08:30N 57°51' E 012°01'5 9.4
2018-Jul-22 08:00N 57°56' E 012°04'3 7.0
2018-Jul-22 07:30N 57°59' E 012°08'4 9.0
2018-Jul-22 07:00N 58°03' E 012°09'4 8.2
2018-Jul-22 06:30N 58°07' E 012°07'2 2.5
2018-Jul-22 05:48N 58°09' E 012°08'3 9.2
2018-Jul-22 05:30N 58°12' E 012°07'5 9.2
2018-Jul-22 05:00N 58°15' E 012°13'1 2.9
2018-Jul-22 04:30N 58°16' E 012°15'0 0.2
2018-Jul-22 04:00N 58°16' E 012°15'0 0.7
2018-Jul-22 03:30N 58°16' E 012°16'2 3.7
2018-Jul-22 03:00N 58°18' E 012°18'3 6.3
2018-Jul-22 02:30N 58°20' E 012°21'1 1.1
2018-Jul-22 02:00N 58°21' E 012°21'3 5.2
2018-Jul-22 01:30N 58°23' E 012°19'3 6.6
2018-Jul-22 01:00N 58°26' E 012°22'5 9.4
2018-Jul-22 00:28N 58°29' E 012°30'4 9.5
2018-Jul-22 00:00N 58°32' E 012°35'5 9.5
2018-Jul-21 23:30N 58°36' E 012°41'5 9.8
2018-Jul-21 23:00N 58°40' E 012°47'28 1.0
2018-Jul-20 20:01N 58°55' E 013°32'011.9
2018-Jul-20 20:00N 58°55' E 013°31'611.8
2018-Jul-20 19:30N 58°51' E 013°23'1811.8
2018-Jul-20 18:01N 58°34' E 013°13'210.8
2018-Jul-20 17:50N 58°32' E 013°11'2 0.1
2018-Jul-20 03:58N 58°31' E 013°10'0 0.0
2018-Jul-20 03:19N 58°31' E 013°10'0 0.0
2018-Jul-20 02:49N 58°31' E 013°10'0 0.0
2018-Jul-19 22:04N 58°31' E 013°10'0 0.1
2018-Jul-19 21:44N 58°31' E 013°10'0 1.9
2018-Jul-19 21:30N 58°31' E 013°10'4 7.4
2018-Jul-19 20:59N 58°34' E 013°13'910.7
2018-Jul-19 20:07N 58°44' E 013°16'111.1
2018-Jul-19 20:00N 58°44' E 013°14'610.0
2018-Jul-19 19:26N 58°44' E 013°03'511.2
2018-Jul-19 18:59N 58°41' E 012°55'511.2
2018-Jul-19 18:30N 58°39' E 012°46'610.9
2018-Jul-19 18:00N 58°35' E 012°39'510.8
2018-Jul-19 17:30N 58°31' E 012°32'510.3
2018-Jul-19 17:00N 58°27' E 012°25'5 9.9
2018-Jul-19 16:30N 58°23' E 012°19'2 3.5
2018-Jul-19 16:00N 58°21' E 012°20'1 2.5
2018-Jul-19 15:30N 58°20' E 012°21'1 2.0
2018-Jul-19 15:00N 58°20' E 012°20'4 4.2
2018-Jul-19 14:00N 58°16' E 012°16'0 0.5
2018-Jul-19 13:30N 58°16' E 012°15'0 0.3
2018-Jul-19 13:01N 58°16' E 012°15'0 0.3
2018-Jul-19 12:30N 58°16' E 012°15'3 5.1
2018-Jul-19 12:00N 58°14' E 012°11'4 8.2
2018-Jul-19 11:28N 58°10' E 012°07'2 4.5
2018-Jul-19 11:00N 58°08' E 012°07'1 2.2
2018-Jul-19 10:30N 58°07' E 012°07'4 6.9
2018-Jul-19 09:58N 58°03' E 012°09'3 7.6
2018-Jul-19 09:30N 58°00' E 012°08'3 6.7
2018-Jul-19 09:01N 57°57' E 012°05'4 8.6
2018-Jul-19 08:30N 57°53' E 012°02'3 6.2
2018-Jul-19 08:00N 57°50' E 012°01'3 5.4
2018-Jul-19 07:30N 57°47' E 012°00'3 5.8
2018-Jul-19 07:00N 57°44' E 012°00'3 5.8
2018-Jul-19 06:30N 57°42' E 011°57'4 7.5
2018-Jul-19 06:00N 57°41' E 011°50'2 2.8
2018-Jul-19 05:28N 57°40' E 011°48'0 0.0
2018-Jul-19 04:58N 57°40' E 011°48'0 0.0
2018-Jul-19 04:28N 57°40' E 011°48'0 0.0
2018-Jul-19 03:58N 57°40' E 011°48'0 0.1
2018-Jul-19 03:28N 57°40' E 011°48'0 0.1
2018-Jul-19 02:58N 57°40' E 011°48'0 0.1
2018-Jul-19 02:28N 57°40' E 011°48'0 0.1
2018-Jul-19 01:58N 57°40' E 011°48'0 0.1
2018-Jul-19 01:28N 57°40' E 011°48'0 0.0
2018-Jul-19 00:58N 57°40' E 011°48'0 0.0
2018-Jul-19 00:28N 57°40' E 011°48'0 0.0
2018-Jul-18 23:58N 57°40' E 011°48'0 0.0
2018-Jul-18 23:28N 57°40' E 011°48'0 0.0
2018-Jul-18 22:58N 57°40' E 011°48'0 0.0
2018-Jul-18 22:28N 57°40' E 011°48'0 0.0
2018-Jul-18 21:58N 57°40' E 011°48'0 0.0
2018-Jul-18 21:28N 57°40' E 011°48'0 0.0
2018-Jul-18 20:58N 57°40' E 011°48'1 1.5
2018-Jul-18 20:30N 57°40' E 011°47'4 8.7
2018-Jul-18 20:00N 57°37' E 011°41'5 9.5
2018-Jul-18 19:30N 57°39' E 011°32'611.1
2018-Jul-18 19:00N 57°44' E 011°30'611.4
2018-Jul-18 18:30N 57°50' E 011°28'510.6
2018-Jul-18 18:00N 57°55' E 011°33'510.3
2018-Jul-18 17:30N 57°57' E 011°42'510.2
2018-Jul-18 17:00N 58°01' E 011°47'5 9.7
2018-Jul-18 16:29N 58°06' E 011°48'5 9.5
2018-Jul-18 15:57N 58°11' E 011°51'9 1.3
2018-Jul-18 08:52N 58°20' E 011°54'4 7.9
2018-Jul-18 08:24N 58°19' E 011°48'410.1
2018-Jul-18 08:01N 58°15' E 011°50'510.3
2018-Jul-18 07:31N 58°10' E 011°51'5 9.6
2018-Jul-18 07:01N 58°05' E 011°48'5 9.3
2018-Jul-18 06:30N 58°01' E 011°46'510.4
2018-Jul-18 06:01N 57°56' E 011°41'510.1
2018-Jul-18 05:30N 57°54' E 011°33'510.3
2018-Jul-18 05:01N 57°51' E 011°26'510.3
2018-Jul-18 04:30N 57°50' E 011°16'5 9.5
2018-Jul-18 04:00N 57°49' E 011°07'5 9.6
2018-Jul-18 03:30N 57°49' E 010°58'5 9.5
2018-Jul-18 03:01N 57°48' E 010°49'5 9.6
2018-Jul-18 02:31N 57°48' E 010°40'5 9.8
2018-Jul-18 02:00N 57°47' E 010°31'510.3
2018-Jul-18 01:30N 57°45' E 010°22'510.2
2018-Jul-18 01:00N 57°43' E 010°14'510.2
2018-Jul-18 00:31N 57°41' E 010°05'510.2
2018-Jul-18 00:01N 57°39' E 009°56'27610.3
2018-Jul-16 21:17N 53°58' E 005°04'311.2
2018-Jul-16 21:00N 53°55' E 005°02'611.2
2018-Jul-16 20:30N 53°49' E 004°59'511.3
2018-Jul-16 20:01N 53°44' E 004°55'611.6
2018-Jul-16 19:31N 53°39' E 004°52'611.5
2018-Jul-16 19:00N 53°33' E 004°48'611.5
2018-Jul-16 18:29N 53°28' E 004°44'5 9.6
2018-Jul-16 18:00N 53°24' E 004°41'811.3
2018-Jul-16 17:18N 53°16' E 004°36'311.1
2018-Jul-16 17:01N 53°13' E 004°34'610.9
2018-Jul-16 16:29N 53°08' E 004°30'510.4
2018-Jul-16 16:01N 53°04' E 004°26'510.2
2018-Jul-16 15:31N 52°60' E 004°21'510.1
2018-Jul-16 15:00N 52°55' E 004°18'28 9.5
2018-Jul-16 12:06N 52°34' E 003°49'1 9.2
2018-Jul-16 12:00N 52°33' E 003°47'5 9.2
2018-Jul-16 11:29N 52°30' E 003°42'4 9.1
2018-Jul-16 11:00N 52°26' E 003°37'5 9.0
2018-Jul-16 10:30N 52°23' E 003°32'5 9.0
2018-Jul-16 10:00N 52°20' E 003°27'5 9.3
2018-Jul-16 09:29N 52°16' E 003°22'5 9.6
2018-Jul-16 08:59N 52°13' E 003°16'510.0
2018-Jul-16 08:30N 52°10' E 003°10'610.4
2018-Jul-16 07:57N 52°05' E 003°04'911.0
2018-Jul-16 07:06N 51°58' E 002°54'111.2
2018-Jul-16 06:59N 51°57' E 002°53'511.4
2018-Jul-16 06:30N 51°53' E 002°47'611.7
2018-Jul-16 06:00N 51°49' E 002°41'611.9
2018-Jul-16 05:30N 51°44' E 002°35'612.1
2018-Jul-16 05:00N 51°39' E 002°28'612.4
2018-Jul-16 04:30N 51°35' E 002°22'612.8
2018-Jul-16 04:00N 51°30' E 002°16'612.7
2018-Jul-16 03:31N 51°24' E 002°11'612.5
2018-Jul-16 03:01N 51°18' E 002°07'612.6
2018-Jul-16 02:31N 51°13' E 002°02'713.3
2018-Jul-16 02:00N 51°09' E 001°53'713.8
2018-Jul-16 01:30N 51°05' E 001°44'714.2
2018-Jul-16 01:01N 51°00' E 001°36'713.5
2018-Jul-16 00:30N 50°55' E 001°29'612.7
2018-Jul-16 00:00N 50°49' E 001°25'612.0
2018-Jul-15 23:30N 50°44' E 001°22'611.4
2018-Jul-15 23:00N 50°39' E 001°16'611.6
2018-Jul-15 22:30N 50°36' E 001°09'611.7
2018-Jul-15 22:01N 50°32' E 001°01'611.4
2018-Jul-15 21:30N 50°29' E 000°53'611.5
2018-Jul-15 21:01N 50°28' E 000°45'611.0
2018-Jul-15 20:30N 50°26' E 000°36'510.5
2018-Jul-15 20:00N 50°25' E 000°28'610.1
2018-Jul-15 19:26N 50°23' E 000°20'4 9.6
2018-Jul-15 19:00N 50°22' E 000°13'5 9.3
2018-Jul-15 18:30N 50°21' E 000°07'5 9.1
2018-Jul-15 18:00N 50°19' W 000°00'4 8.8
2018-Jul-15 17:30N 50°18' W 000°07'4 8.6
2018-Jul-15 17:00N 50°17' W 000°13'8 8.1
2018-Jul-15 16:02N 50°15' W 000°25'1 7.8
2018-Jul-15 15:55N 50°14' W 000°26'3 7.8
2018-Jul-15 15:30N 50°14' W 000°31'4 7.8
2018-Jul-15 15:00N 50°12' W 000°37'4 8.1
2018-Jul-15 14:30N 50°11' W 000°43'4 8.5
2018-Jul-15 14:00N 50°10' W 000°50'5 9.1
2018-Jul-15 13:30N 50°09' W 000°56'510.0
2018-Jul-15 13:00N 50°08' W 001°04'610.9
2018-Jul-15 12:30N 50°06' W 001°12'611.9
2018-Jul-15 12:00N 50°04' W 001°21'712.7
2018-Jul-15 11:29N 50°03' W 001°31'713.5
2018-Jul-15 11:00N 50°01' W 001°41'914.0
2018-Jul-15 10:22N 49°58' W 001°54'514.5
2018-Jul-15 10:00N 49°57' W 002°02'914.7
2018-Jul-15 09:24N 49°55' W 002°15'614.4
2018-Jul-15 08:59N 49°53' W 002°24'913.7
2018-Jul-15 08:19N 49°50' W 002°37'413.2
2018-Jul-15 08:00N 49°49' W 002°44'912.8
2018-Jul-15 07:19N 49°46' W 002°57'512.2
2018-Jul-15 06:55N 49°44' W 003°03'511.9
2018-Jul-15 06:30N 49°41' W 003°10'711.6
2018-Jul-15 05:55N 49°38' W 003°19'511.3
2018-Jul-15 05:27N 49°35' W 003°26'1710.7
2018-Jul-15 03:51N 49°27' W 003°49'310.0
2018-Jul-15 03:30N 49°25' W 003°53'11 9.5
2018-Jul-15 02:20N 49°19' W 004°08'3 8.9
2018-Jul-15 02:00N 49°18' W 004°12'16 8.2
2018-Jul-15 00:03N 49°10' W 004°33'0 7.8
2018-Jul-15 00:00N 49°10' W 004°34'7 8.1
2018-Jul-14 23:09N 49°06' W 004°43'1 8.2
2018-Jul-14 23:00N 49°06' W 004°44'4 8.0
2018-Jul-14 22:30N 49°04' W 004°50'4 8.5
2018-Jul-14 22:00N 49°01' W 004°55'4 8.8
2018-Jul-14 21:30N 48°59' W 005°01'5 9.2
2018-Jul-14 20:58N 48°57' W 005°07'9 9.7
2018-Jul-14 20:04N 48°52' W 005°19'1 9.6
2018-Jul-14 20:01N 48°52' W 005°20'510.2
2018-Jul-14 19:30N 48°50' W 005°26'611.3
2018-Jul-14 19:00N 48°47' W 005°34'2411.3
2018-Jul-14 16:53N 48°26' W 005°52'1211.5
2018-Jul-14 15:53N 48°16' W 006°00'1111.6
2018-Jul-14 14:58N 48°07' W 006°08'1211.8
2018-Jul-14 13:58N 47°56' W 006°16'7210.0
2018-Jul-14 06:48N 46°52' W 007°05'  
Track history (hours):
 
Tides and Currents Weather Stations Pressure Air Temp Water Temp Dewpoint Dewpoint Depression Visibility Wind Speed Wind Dir Waves Ship Positions

Kinne

Last reported at 2018-Jul-23 00:58 UTC. Time now 2018-Jul-23 04:05 UTC.
Position N 57°10' E 008°27'.

Length 89 m; draft 5.4 m.

Type: Cargo ship. MMSI: 245057000.

Date/timePositionNaut miles runAvg speedWind from/ knotsBaromVisibWave heightAir tempDewpointWater temp
2018-Jul-23 00:58N 57°10' E 008°27'8 9.8
2018-Jul-23 00:10N 57°14' E 008°39'1810.0
2018-Jul-22 22:25N 57°23' E 009°07'410.0
2018-Jul-22 22:00N 57°25' E 009°13'5 9.8
2018-Jul-22 21:30N 57°28' E 009°21'5 9.6
2018-Jul-22 20:59N 57°30' E 009°29'5 9.6
2018-Jul-22 20:30N 57°33' E 009°36'8 8.8
2018-Jul-22 19:34N 57°37' E 009°50'2 8.4
2018-Jul-22 19:20N 57°38' E 009°53'5 8.5
2018-Jul-22 18:44N 57°40' E 010°01'3 8.6
2018-Jul-22 18:26N 57°42' E 010°06'4 8.7
2018-Jul-22 17:58N 57°43' E 010°12'5 8.7
2018-Jul-22 17:27N 57°45' E 010°20'4 8.5
2018-Jul-22 17:00N 57°47' E 010°26'4 8.1
2018-Jul-22 16:30N 57°48' E 010°33'4 7.9
2018-Jul-22 16:00N 57°48' E 010°41'8 8.5
2018-Jul-22 15:01N 57°45' E 010°56'5 9.8
2018-Jul-22 14:30N 57°43' E 011°04'5 9.9
2018-Jul-22 14:01N 57°42' E 011°13'510.2
2018-Jul-22 13:30N 57°40' E 011°22'5 9.8
2018-Jul-22 13:00N 57°38' E 011°30'510.4
2018-Jul-22 12:30N 57°37' E 011°40'5 9.8
2018-Jul-22 12:01N 57°40' E 011°47'0 0.3
2018-Jul-22 11:28N 57°40' E 011°47'0 0.0
2018-Jul-22 10:59N 57°40' E 011°47'2 4.8
2018-Jul-22 10:30N 57°41' E 011°51'4 8.0
2018-Jul-22 10:00N 57°43' E 011°58'3 5.4
2018-Jul-22 09:30N 57°45' E 012°00'3 6.0
2018-Jul-22 09:00N 57°48' E 012°01'3 6.1
2018-Jul-22 08:30N 57°51' E 012°01'5 9.4
2018-Jul-22 08:00N 57°56' E 012°04'3 7.0
2018-Jul-22 07:30N 57°59' E 012°08'4 9.0
2018-Jul-22 07:00N 58°03' E 012°09'4 8.2
2018-Jul-22 06:30N 58°07' E 012°07'2 2.5
2018-Jul-22 05:48N 58°09' E 012°08'3 9.2
2018-Jul-22 05:30N 58°12' E 012°07'5 9.2
2018-Jul-22 05:00N 58°15' E 012°13'1 2.9
2018-Jul-22 04:30N 58°16' E 012°15'0 0.2
2018-Jul-22 04:00N 58°16' E 012°15'0 0.7
2018-Jul-22 03:30N 58°16' E 012°16'2 3.7
2018-Jul-22 03:00N 58°18' E 012°18'3 6.3
2018-Jul-22 02:30N 58°20' E 012°21'1 1.1
2018-Jul-22 02:00N 58°21' E 012°21'3 5.2
2018-Jul-22 01:30N 58°23' E 012°19'3 6.6
2018-Jul-22 01:00N 58°26' E 012°22'5 9.4
2018-Jul-22 00:28N 58°29' E 012°30'4 9.5
2018-Jul-22 00:00N 58°32' E 012°35'5 9.5
2018-Jul-21 23:30N 58°36' E 012°41'5 9.8
2018-Jul-21 23:00N 58°40' E 012°47'28 1.0
2018-Jul-20 20:01N 58°55' E 013°32'011.9
2018-Jul-20 20:00N 58°55' E 013°31'611.8
2018-Jul-20 19:30N 58°51' E 013°23'1811.8
2018-Jul-20 18:01N 58°34' E 013°13'210.8
2018-Jul-20 17:50N 58°32' E 013°11'2 0.1
2018-Jul-20 03:58N 58°31' E 013°10'0 0.0
2018-Jul-20 03:19N 58°31' E 013°10'0 0.0
2018-Jul-20 02:49N 58°31' E 013°10'0 0.0
2018-Jul-19 22:04N 58°31' E 013°10'0 0.1
2018-Jul-19 21:44N 58°31' E 013°10'0 1.9
2018-Jul-19 21:30N 58°31' E 013°10'4 7.4
2018-Jul-19 20:59N 58°34' E 013°13'910.7
2018-Jul-19 20:07N 58°44' E 013°16'111.1
2018-Jul-19 20:00N 58°44' E 013°14'610.0
2018-Jul-19 19:26N 58°44' E 013°03'511.2
2018-Jul-19 18:59N 58°41' E 012°55'511.2
2018-Jul-19 18:30N 58°39' E 012°46'610.9
2018-Jul-19 18:00N 58°35' E 012°39'510.8
2018-Jul-19 17:30N 58°31' E 012°32'510.3
2018-Jul-19 17:00N 58°27' E 012°25'5 9.9
2018-Jul-19 16:30N 58°23' E 012°19'2 3.5
2018-Jul-19 16:00N 58°21' E 012°20'1 2.5
2018-Jul-19 15:30N 58°20' E 012°21'1 2.0
2018-Jul-19 15:00N 58°20' E 012°20'4 4.2
2018-Jul-19 14:00N 58°16' E 012°16'0 0.5
2018-Jul-19 13:30N 58°16' E 012°15'0 0.3
2018-Jul-19 13:01N 58°16' E 012°15'0 0.3
2018-Jul-19 12:30N 58°16' E 012°15'3 5.1
2018-Jul-19 12:00N 58°14' E 012°11'4 8.2
2018-Jul-19 11:28N 58°10' E 012°07'2 4.5
2018-Jul-19 11:00N 58°08' E 012°07'1 2.2
2018-Jul-19 10:30N 58°07' E 012°07'4 6.9
2018-Jul-19 09:58N 58°03' E 012°09'3 7.6
2018-Jul-19 09:30N 58°00' E 012°08'3 6.7
2018-Jul-19 09:01N 57°57' E 012°05'4 8.6
2018-Jul-19 08:30N 57°53' E 012°02'3 6.2
2018-Jul-19 08:00N 57°50' E 012°01'3 5.4
2018-Jul-19 07:30N 57°47' E 012°00'3 5.8
2018-Jul-19 07:00N 57°44' E 012°00'3 5.8
2018-Jul-19 06:30N 57°42' E 011°57'4 7.5
2018-Jul-19 06:00N 57°41' E 011°50'2 2.8
2018-Jul-19 05:28N 57°40' E 011°48'0 0.0
2018-Jul-19 04:58N 57°40' E 011°48'0 0.0
2018-Jul-19 04:28N 57°40' E 011°48'0 0.0
2018-Jul-19 03:58N 57°40' E 011°48'0 0.1
2018-Jul-19 03:28N 57°40' E 011°48'0 0.1
2018-Jul-19 02:58N 57°40' E 011°48'0 0.1
2018-Jul-19 02:28N 57°40' E 011°48'0 0.1
2018-Jul-19 01:58N 57°40' E 011°48'0 0.1
2018-Jul-19 01:28N 57°40' E 011°48'0 0.0
2018-Jul-19 00:58N 57°40' E 011°48'0 0.0
2018-Jul-19 00:28N 57°40' E 011°48'0 0.0
2018-Jul-18 23:58N 57°40' E 011°48'0 0.0
2018-Jul-18 23:28N 57°40' E 011°48'0 0.0
2018-Jul-18 22:58N 57°40' E 011°48'0 0.0
2018-Jul-18 22:28N 57°40' E 011°48'0 0.0
2018-Jul-18 21:58N 57°40' E 011°48'0 0.0
2018-Jul-18 21:28N 57°40' E 011°48'0 0.0
2018-Jul-18 20:58N 57°40' E 011°48'1 1.5
2018-Jul-18 20:30N 57°40' E 011°47'4 8.7
2018-Jul-18 20:00N 57°37' E 011°41'5 9.5
2018-Jul-18 19:30N 57°39' E 011°32'611.1
2018-Jul-18 19:00N 57°44' E 011°30'611.4
2018-Jul-18 18:30N 57°50' E 011°28'510.6
2018-Jul-18 18:00N 57°55' E 011°33'510.3
2018-Jul-18 17:30N 57°57' E 011°42'510.2
2018-Jul-18 17:00N 58°01' E 011°47'5 9.7
2018-Jul-18 16:29N 58°06' E 011°48'5 9.5
2018-Jul-18 15:57N 58°11' E 011°51'9 1.3
2018-Jul-18 08:52N 58°20' E 011°54'4 7.9
2018-Jul-18 08:24N 58°19' E 011°48'410.1
2018-Jul-18 08:01N 58°15' E 011°50'510.3
2018-Jul-18 07:31N 58°10' E 011°51'5 9.6
2018-Jul-18 07:01N 58°05' E 011°48'5 9.3
2018-Jul-18 06:30N 58°01' E 011°46'510.4
2018-Jul-18 06:01N 57°56' E 011°41'510.1
2018-Jul-18 05:30N 57°54' E 011°33'510.3
2018-Jul-18 05:01N 57°51' E 011°26'510.3
2018-Jul-18 04:30N 57°50' E 011°16'5 9.5
2018-Jul-18 04:00N 57°49' E 011°07'5 9.6
2018-Jul-18 03:30N 57°49' E 010°58'5 9.5
2018-Jul-18 03:01N 57°48' E 010°49'5 9.6
2018-Jul-18 02:31N 57°48' E 010°40'5 9.8
2018-Jul-18 02:00N 57°47' E 010°31'510.3
2018-Jul-18 01:30N 57°45' E 010°22'510.2
2018-Jul-18 01:00N 57°43' E 010°14'510.2
2018-Jul-18 00:31N 57°41' E 010°05'510.2
2018-Jul-18 00:01N 57°39' E 009°56'27610.3
2018-Jul-16 21:17N 53°58' E 005°04'311.2
2018-Jul-16 21:00N 53°55' E 005°02'611.2
2018-Jul-16 20:30N 53°49' E 004°59'511.3
2018-Jul-16 20:01N 53°44' E 004°55'611.6
2018-Jul-16 19:31N 53°39' E 004°52'611.5
2018-Jul-16 19:00N 53°33' E 004°48'611.5
2018-Jul-16 18:29N 53°28' E 004°44'5 9.6
2018-Jul-16 18:00N 53°24' E 004°41'811.3
2018-Jul-16 17:18N 53°16' E 004°36'311.1
2018-Jul-16 17:01N 53°13' E 004°34'610.9
2018-Jul-16 16:29N 53°08' E 004°30'510.4
2018-Jul-16 16:01N 53°04' E 004°26'510.2
2018-Jul-16 15:31N 52°60' E 004°21'510.1
2018-Jul-16 15:00N 52°55' E 004°18'28 9.5
2018-Jul-16 12:06N 52°34' E 003°49'1 9.2
2018-Jul-16 12:00N 52°33' E 003°47'5 9.2
2018-Jul-16 11:29N 52°30' E 003°42'4 9.1
2018-Jul-16 11:00N 52°26' E 003°37'5 9.0
2018-Jul-16 10:30N 52°23' E 003°32'5 9.0
2018-Jul-16 10:00N 52°20' E 003°27'5 9.3
2018-Jul-16 09:29N 52°16' E 003°22'5 9.6
2018-Jul-16 08:59N 52°13' E 003°16'510.0
2018-Jul-16 08:30N 52°10' E 003°10'610.4
2018-Jul-16 07:57N 52°05' E 003°04'911.0
2018-Jul-16 07:06N 51°58' E 002°54'111.2
2018-Jul-16 06:59N 51°57' E 002°53'511.4
2018-Jul-16 06:30N 51°53' E 002°47'611.7
2018-Jul-16 06:00N 51°49' E 002°41'611.9
2018-Jul-16 05:30N 51°44' E 002°35'612.1
2018-Jul-16 05:00N 51°39' E 002°28'612.4
2018-Jul-16 04:30N 51°35' E 002°22'612.8
2018-Jul-16 04:00N 51°30' E 002°16'612.7
2018-Jul-16 03:31N 51°24' E 002°11'612.5
2018-Jul-16 03:01N 51°18' E 002°07'612.6
2018-Jul-16 02:31N 51°13' E 002°02'713.3
2018-Jul-16 02:00N 51°09' E 001°53'713.8
2018-Jul-16 01:30N 51°05' E 001°44'714.2
2018-Jul-16 01:01N 51°00' E 001°36'713.5
2018-Jul-16 00:30N 50°55' E 001°29'612.7
2018-Jul-16 00:00N 50°49' E 001°25'612.0
2018-Jul-15 23:30N 50°44' E 001°22'611.4
2018-Jul-15 23:00N 50°39' E 001°16'611.6
2018-Jul-15 22:30N 50°36' E 001°09'611.7
2018-Jul-15 22:01N 50°32' E 001°01'611.4
2018-Jul-15 21:30N 50°29' E 000°53'611.5
2018-Jul-15 21:01N 50°28' E 000°45'611.0
2018-Jul-15 20:30N 50°26' E 000°36'510.5
2018-Jul-15 20:00N 50°25' E 000°28'610.1
2018-Jul-15 19:26N 50°23' E 000°20'4 9.6
2018-Jul-15 19:00N 50°22' E 000°13'5 9.3
2018-Jul-15 18:30N 50°21' E 000°07'5 9.1
2018-Jul-15 18:00N 50°19' W 000°00'4 8.8
2018-Jul-15 17:30N 50°18' W 000°07'4 8.6
2018-Jul-15 17:00N 50°17' W 000°13'8 8.1
2018-Jul-15 16:02N 50°15' W 000°25'1 7.8
2018-Jul-15 15:55N 50°14' W 000°26'3 7.8
2018-Jul-15 15:30N 50°14' W 000°31'4 7.8
2018-Jul-15 15:00N 50°12' W 000°37'4 8.1
2018-Jul-15 14:30N 50°11' W 000°43'4 8.5
2018-Jul-15 14:00N 50°10' W 000°50'5 9.1
2018-Jul-15 13:30N 50°09' W 000°56'510.0
2018-Jul-15 13:00N 50°08' W 001°04'610.9
2018-Jul-15 12:30N 50°06' W 001°12'611.9
2018-Jul-15 12:00N 50°04' W 001°21'712.7
2018-Jul-15 11:29N 50°03' W 001°31'713.5
2018-Jul-15 11:00N 50°01' W 001°41'914.0
2018-Jul-15 10:22N 49°58' W 001°54'514.5
2018-Jul-15 10:00N 49°57' W 002°02'914.7
2018-Jul-15 09:24N 49°55' W 002°15'614.4
2018-Jul-15 08:59N 49°53' W 002°24'913.7
2018-Jul-15 08:19N 49°50' W 002°37'413.2
2018-Jul-15 08:00N 49°49' W 002°44'912.8
2018-Jul-15 07:19N 49°46' W 002°57'512.2
2018-Jul-15 06:55N 49°44' W 003°03'511.9
2018-Jul-15 06:30N 49°41' W 003°10'711.6
2018-Jul-15 05:55N 49°38' W 003°19'511.3
2018-Jul-15 05:27N 49°35' W 003°26'1710.7
2018-Jul-15 03:51N 49°27' W 003°49'310.0
2018-Jul-15 03:30N 49°25' W 003°53'11 9.5
2018-Jul-15 02:20N 49°19' W 004°08'3 8.9
2018-Jul-15 02:00N 49°18' W 004°12'16 8.2
2018-Jul-15 00:03N 49°10' W 004°33'0 7.8
2018-Jul-15 00:00N 49°10' W 004°34'7 8.1
2018-Jul-14 23:09N 49°06' W 004°43'1 8.2
2018-Jul-14 23:00N 49°06' W 004°44'4 8.0
2018-Jul-14 22:30N 49°04' W 004°50'4 8.5
2018-Jul-14 22:00N 49°01' W 004°55'4 8.8
2018-Jul-14 21:30N 48°59' W 005°01'5 9.2
2018-Jul-14 20:58N 48°57' W 005°07'9 9.7
2018-Jul-14 20:04N 48°52' W 005°19'1 9.6
2018-Jul-14 20:01N 48°52' W 005°20'510.2
2018-Jul-14 19:30N 48°50' W 005°26'611.3
2018-Jul-14 19:00N 48°47' W 005°34'2411.3
2018-Jul-14 16:53N 48°26' W 005°52'1211.5
2018-Jul-14 15:53N 48°16' W 006°00'1111.6
2018-Jul-14 14:58N 48°07' W 006°08'1211.8
2018-Jul-14 13:58N 47°56' W 006°16'7210.0
2018-Jul-14 06:48N 46°52' W 007°05'  

Dump ship's entire track history